createdAt,value
2023-05-20T00:00:18.004Z,29.29
2023-05-20T00:02:19.666Z,29.29
2023-05-20T00:04:21.534Z,29.29
2023-05-20T00:06:23.583Z,29.21
2023-05-20T00:08:25.361Z,29.22
2023-05-20T00:10:27.496Z,29.33
2023-05-20T00:12:29.167Z,28.99
2023-05-20T00:14:30.809Z,29.26
2023-05-20T00:16:32.689Z,29.04
2023-05-20T00:18:34.400Z,29.31
2023-05-20T00:20:36.023Z,29.27
2023-05-20T00:22:37.714Z,29.37
2023-05-20T00:24:39.419Z,29.31
2023-05-20T00:26:41.254Z,29.47
2023-05-20T00:28:42.925Z,28.98
2023-05-20T00:30:44.491Z,29.37
2023-05-20T00:32:46.272Z,29.32
2023-05-20T00:34:58.516Z,29.38
2023-05-20T00:37:00.337Z,29.24
2023-05-20T00:39:02.122Z,29.33
2023-05-20T00:41:03.931Z,29.54
2023-05-20T00:43:05.614Z,29.19
2023-05-20T00:45:07.911Z,29.29
2023-05-20T00:47:09.551Z,29.42
2023-05-20T00:49:11.422Z,29.35
2023-05-20T00:51:14.247Z,29.36
2023-05-20T00:53:18.700Z,29.30
2023-05-20T00:55:20.415Z,29.59
2023-05-20T00:57:22.065Z,29.38
2023-05-20T00:59:24.310Z,29.32
2023-05-20T01:01:26.228Z,29.30
2023-05-20T01:03:28.878Z,29.48
2023-05-20T01:05:30.772Z,29.41
2023-05-20T01:07:33.205Z,29.58
2023-05-20T01:09:34.927Z,29.52
2023-05-20T01:11:41.954Z,29.46
2023-05-20T01:13:47.957Z,29.25
2023-05-20T01:15:50.188Z,29.63
2023-05-20T01:17:58.030Z,29.42
2023-05-20T01:20:01.442Z,29.67
2023-05-20T01:22:07.823Z,29.57
2023-05-20T01:24:09.500Z,29.36
2023-05-20T01:26:14.124Z,29.37
2023-05-20T01:28:17.970Z,29.39
2023-05-20T01:30:20.861Z,29.40
2023-05-20T01:32:47.805Z,29.23
2023-05-20T01:34:51.406Z,29.48
2023-05-20T01:36:54.718Z,29.43
2023-05-20T01:38:56.567Z,29.48
2023-05-20T01:40:58.477Z,29.37
2023-05-20T01:43:01.514Z,29.44
2023-05-20T01:45:03.810Z,29.47
2023-05-20T01:47:05.433Z,29.24
2023-05-20T01:49:07.222Z,29.50
2023-05-20T01:51:08.936Z,29.64
2023-05-20T01:53:10.770Z,29.57
2023-05-20T01:55:12.376Z,29.66
2023-05-20T01:57:14.133Z,29.36
2023-05-20T01:59:16.077Z,29.35
2023-05-20T02:01:17.965Z,29.46
2023-05-20T02:03:19.701Z,29.65
2023-05-20T02:05:21.441Z,29.49
2023-05-20T02:07:23.189Z,29.40
2023-05-20T02:09:24.831Z,29.65
2023-05-20T02:11:26.662Z,29.60
2023-05-20T02:13:28.255Z,29.49
2023-05-20T02:15:29.915Z,29.60
2023-05-20T02:17:31.672Z,29.54
2023-05-20T02:19:33.256Z,29.65
2023-05-20T02:21:35.417Z,29.29
2023-05-20T02:23:37.045Z,29.57
2023-05-20T02:25:38.720Z,29.77
2023-05-20T02:27:40.760Z,29.58
2023-05-20T02:29:43.585Z,29.61
2023-05-20T02:31:47.608Z,29.61
2023-05-20T02:33:49.287Z,29.90
2023-05-20T02:35:50.855Z,29.40
2023-05-20T02:37:52.411Z,29.65
2023-05-20T02:39:54.028Z,29.31
2023-05-20T02:41:56.374Z,29.56
2023-05-20T02:43:58.102Z,29.82
2023-05-20T02:45:59.848Z,29.73
2023-05-20T02:48:01.721Z,29.79
2023-05-20T02:50:03.644Z,29.80
2023-05-20T02:52:05.609Z,29.81
2023-05-20T02:54:07.260Z,29.66
2023-05-20T02:56:08.903Z,29.85
2023-05-20T02:58:10.630Z,29.59
2023-05-20T03:00:13.321Z,29.92
2023-05-20T03:02:15.092Z,29.96
2023-05-20T03:04:19.325Z,29.97
2023-05-20T03:06:21.056Z,29.95
2023-05-20T03:08:23.049Z,29.93
2023-05-20T03:10:24.654Z,29.82
2023-05-20T03:12:26.453Z,30.20
2023-05-20T03:14:28.096Z,29.95
2023-05-20T03:16:29.822Z,30.06
2023-05-20T03:18:31.428Z,29.73
2023-05-20T03:20:33.057Z,29.91
2023-05-20T03:22:34.642Z,29.96
2023-05-20T03:24:36.630Z,29.90
2023-05-20T03:26:42.943Z,29.86
2023-05-20T03:28:44.639Z,30.06
2023-05-20T03:30:46.367Z,30.08
2023-05-20T03:32:48.095Z,30.06
2023-05-20T03:34:50.247Z,29.99
2023-05-20T03:36:51.960Z,29.88
2023-05-20T03:38:53.593Z,30.00
2023-05-20T03:40:55.416Z,30.09
2023-05-20T03:42:57.069Z,30.10
2023-05-20T03:45:00.192Z,30.00
2023-05-20T03:47:02.016Z,29.94
2023-05-20T03:49:04.027Z,30.09
2023-05-20T03:51:05.709Z,30.13
2023-05-20T03:53:07.380Z,29.91
2023-05-20T03:55:09.564Z,30.00
2023-05-20T03:57:11.471Z,30.10
2023-05-20T03:59:13.058Z,29.90
2023-05-20T04:01:15.250Z,30.15
2023-05-20T04:03:17.125Z,30.05
2023-05-20T04:05:19.443Z,30.13
2023-05-20T04:07:21.072Z,30.11
2023-05-20T04:09:23.075Z,30.09
2023-05-20T04:11:24.686Z,30.24
2023-05-20T04:13:26.366Z,30.43
2023-05-20T04:15:29.730Z,30.20
2023-05-20T04:17:31.609Z,30.24
2023-05-20T04:19:34.148Z,30.32
2023-05-20T04:21:35.800Z,30.44
2023-05-20T04:23:37.405Z,30.19
2023-05-20T04:25:39.457Z,30.03
2023-05-20T04:27:41.792Z,30.33
2023-05-20T04:29:45.994Z,30.30
2023-05-20T04:31:49.024Z,30.20
2023-05-20T04:33:52.004Z,30.21
2023-05-20T04:35:53.634Z,29.97
2023-05-20T04:37:55.852Z,30.38
2023-05-20T04:39:57.825Z,30.19
2023-05-20T04:41:59.723Z,30.38
2023-05-20T04:44:01.901Z,30.26
2023-05-20T04:46:06.160Z,30.44
2023-05-20T04:48:07.861Z,30.35
2023-05-20T04:50:10.986Z,30.43
2023-05-20T04:52:12.878Z,30.39
2023-05-20T04:54:14.483Z,30.34
2023-05-20T04:56:16.178Z,30.40
2023-05-20T04:58:17.784Z,30.25
2023-05-20T05:00:19.474Z,30.16
2023-05-20T05:02:21.089Z,30.54
2023-05-20T05:04:23.387Z,30.49
2023-05-20T05:06:25.237Z,30.43
2023-05-20T05:08:26.862Z,30.35
2023-05-20T05:10:28.718Z,30.58
2023-05-20T05:12:30.369Z,30.38
2023-05-20T05:14:32.005Z,30.56
2023-05-20T05:16:33.695Z,30.55
2023-05-20T05:18:35.475Z,30.50
2023-05-20T05:20:37.246Z,30.41
2023-05-20T05:22:41.247Z,30.61
2023-05-20T05:24:42.850Z,30.65
2023-05-20T05:26:44.565Z,30.42
2023-05-20T05:28:46.251Z,30.45
2023-05-20T05:30:47.896Z,30.46
2023-05-20T05:32:49.731Z,30.63
2023-05-20T05:34:51.496Z,30.58
2023-05-20T05:36:53.128Z,30.51
2023-05-20T05:38:54.744Z,29.95
2023-05-20T05:40:56.849Z,30.41
2023-05-20T05:42:58.459Z,30.55
2023-05-20T05:45:00.019Z,30.54
2023-05-20T05:47:01.644Z,30.58
2023-05-20T05:49:03.287Z,30.51
2023-05-20T05:51:04.853Z,30.71
2023-05-20T05:53:06.443Z,30.56
2023-05-20T05:55:09.482Z,30.55
2023-05-20T05:57:12.010Z,30.78
2023-05-20T05:59:13.746Z,30.75
2023-05-20T06:01:15.445Z,30.47
2023-05-20T06:03:17.373Z,30.84
2023-05-20T06:05:19.191Z,30.83
2023-05-20T06:07:20.778Z,30.54
2023-05-20T06:09:22.395Z,30.64
2023-05-20T06:11:24.663Z,30.58
2023-05-20T06:13:26.285Z,30.58
2023-05-20T06:15:27.924Z,30.96
2023-05-20T06:17:29.537Z,30.84
2023-05-20T06:19:31.396Z,30.70
2023-05-20T06:21:33.531Z,30.71
2023-05-20T06:23:35.163Z,30.69
2023-05-20T06:25:36.839Z,30.86
2023-05-20T06:27:38.562Z,30.54
2023-05-20T06:29:42.410Z,30.86
2023-05-20T06:31:45.390Z,30.79
2023-05-20T06:33:46.973Z,30.75
2023-05-20T06:35:48.591Z,30.79
2023-05-20T06:37:50.518Z,30.90
2023-05-20T06:39:53.896Z,30.92
2023-05-20T06:41:55.682Z,30.75
2023-05-20T06:43:57.273Z,30.77
2023-05-20T06:45:59.012Z,30.88
2023-05-20T06:48:00.719Z,30.94
2023-05-20T06:50:02.473Z,30.98
2023-05-20T06:52:05.056Z,30.90
2023-05-20T06:54:06.681Z,31.07
2023-05-20T06:56:08.312Z,30.92
2023-05-20T06:58:09.936Z,31.23
2023-05-20T07:00:13.773Z,31.04
2023-05-20T07:02:15.614Z,30.93
2023-05-20T07:04:17.374Z,31.07
2023-05-20T07:06:19.107Z,31.11
2023-05-20T07:08:20.727Z,31.16
2023-05-20T07:10:22.352Z,31.21
2023-05-20T07:12:24.137Z,31.10
2023-05-20T07:14:25.829Z,30.79
2023-05-20T07:16:27.526Z,31.20
2023-05-20T07:18:29.140Z,31.24
2023-05-20T07:20:30.885Z,31.25
2023-05-20T07:22:32.555Z,31.38
2023-05-20T07:24:36.016Z,31.09
2023-05-20T07:26:37.688Z,31.07
2023-05-20T07:28:39.377Z,31.28
2023-05-20T07:30:41.225Z,31.10
2023-05-20T07:32:42.931Z,31.62
2023-05-20T07:34:44.643Z,31.13
2023-05-20T07:36:46.260Z,31.34
2023-05-20T07:38:57.073Z,31.15
2023-05-20T07:41:05.070Z,31.37
2023-05-20T07:43:09.847Z,31.21
2023-05-20T07:45:11.675Z,31.23
2023-05-20T07:47:14.030Z,31.31
2023-05-20T07:49:15.719Z,31.27
2023-05-20T07:51:17.570Z,31.35
2023-05-20T07:53:19.979Z,31.15
2023-05-20T07:55:21.782Z,31.14
2023-05-20T07:57:23.497Z,31.62
2023-05-20T07:59:25.097Z,31.49
2023-05-20T08:01:27.281Z,31.25
2023-05-20T08:03:29.017Z,31.29
2023-05-20T08:05:30.711Z,31.62
2023-05-20T08:07:32.509Z,31.09
2023-05-20T08:09:34.615Z,31.41
2023-05-20T08:11:36.303Z,31.36
2023-05-20T08:13:38.145Z,31.18
2023-05-20T08:15:39.747Z,31.33
2023-05-20T08:17:42.220Z,31.45
2023-05-20T08:19:44.041Z,31.46
2023-05-20T08:21:45.688Z,31.34
2023-05-20T08:23:47.353Z,31.48
2023-05-20T08:25:49.021Z,31.58
2023-05-20T08:27:51.577Z,31.69
2023-05-20T08:29:53.382Z,31.29
2023-05-20T08:31:55.043Z,31.92
2023-05-20T08:33:56.639Z,31.63
2023-05-20T08:35:58.222Z,31.54
2023-05-20T08:38:01.416Z,31.67
2023-05-20T08:40:03.395Z,31.64
2023-05-20T08:42:06.962Z,31.62
2023-05-20T08:44:11.099Z,31.78
2023-05-20T08:46:12.949Z,31.60
2023-05-20T08:48:16.728Z,31.37
2023-05-20T08:50:18.945Z,31.52
2023-05-20T08:52:22.352Z,31.71
2023-05-20T08:54:26.597Z,31.69
2023-05-20T08:56:30.824Z,31.69
2023-05-20T08:58:33.060Z,31.59
2023-05-20T09:00:34.855Z,31.59
2023-05-20T09:02:38.351Z,31.64
2023-05-20T09:04:40.237Z,31.81
2023-05-20T09:06:45.993Z,31.71
2023-05-20T09:08:53.774Z,31.64
2023-05-20T09:10:55.891Z,31.37
2023-05-20T09:12:57.489Z,31.80
2023-05-20T09:14:59.265Z,31.28
2023-05-20T09:17:00.953Z,31.95
2023-05-20T09:19:02.788Z,31.72
2023-05-20T09:21:06.921Z,31.40
2023-05-20T09:23:09.940Z,31.60
2023-05-20T09:25:13.260Z,31.44
2023-05-20T09:27:15.587Z,31.37
2023-05-20T09:29:17.197Z,31.31
2023-05-20T09:31:18.892Z,31.34
2023-05-20T09:33:20.517Z,31.44
2023-05-20T09:35:26.393Z,31.38
2023-05-20T09:37:28.494Z,31.38
2023-05-20T09:39:32.821Z,31.44
2023-05-20T09:41:39.201Z,31.53
2023-05-20T09:43:41.776Z,31.36
2023-05-20T09:45:43.970Z,31.41
2023-05-20T09:47:46.076Z,31.57
2023-05-20T09:49:48.177Z,31.49
2023-05-20T09:51:50.875Z,31.63
2023-05-20T09:53:53.660Z,31.45
2023-05-20T09:55:55.986Z,31.31
2023-05-20T09:57:59.359Z,31.30
2023-05-20T10:00:01.572Z,31.23
2023-05-20T10:02:03.728Z,31.29
2023-05-20T10:04:06.904Z,31.35
2023-05-20T10:06:20.488Z,31.44
2023-05-20T10:08:47.056Z,31.25
2023-05-20T10:11:08.148Z,31.29
2023-05-20T10:13:36.071Z,30.98
2023-05-20T10:16:00.180Z,31.03
2023-05-20T10:18:21.946Z,31.18
2023-05-20T10:20:23.665Z,31.17
2023-05-20T10:22:30.312Z,31.07
2023-05-20T10:24:40.653Z,31.12
2023-05-20T10:26:43.317Z,31.13
2023-05-20T10:28:46.262Z,31.07
2023-05-20T10:30:51.039Z,30.78
2023-05-20T10:32:56.672Z,30.77
2023-05-20T10:35:04.913Z,30.77
2023-05-20T10:37:07.067Z,30.35
2023-05-20T10:39:16.564Z,30.68
2023-05-20T10:41:21.724Z,30.46
2023-05-20T10:43:28.446Z,30.41
2023-05-20T10:45:30.184Z,30.48
2023-05-20T10:47:32.290Z,30.46
2023-05-20T10:49:35.738Z,30.37
2023-05-20T10:51:37.623Z,30.65
2023-05-20T10:53:40.447Z,30.54
2023-05-20T10:55:49.523Z,30.58
2023-05-20T10:57:51.763Z,30.69
2023-05-20T10:59:54.266Z,30.64
2023-05-20T11:01:56.323Z,30.91
2023-05-20T11:03:58.206Z,31.38
2023-05-20T11:05:59.903Z,31.00
2023-05-20T11:08:20.241Z,31.02
2023-05-20T11:10:27.816Z,30.51
2023-05-20T11:12:29.446Z,30.67
2023-05-20T11:14:31.226Z,29.77
2023-05-20T11:16:32.908Z,29.74
2023-05-20T11:18:34.581Z,29.74
2023-05-20T11:20:36.725Z,29.54
2023-05-20T11:22:40.698Z,29.43
2023-05-20T11:24:42.344Z,29.19
2023-05-20T11:26:44.082Z,29.19
2023-05-20T11:28:46.168Z,29.24
2023-05-20T11:30:48.579Z,29.76
2023-05-20T11:33:03.189Z,29.71
2023-05-20T11:35:06.296Z,29.77
2023-05-20T11:37:09.356Z,29.71
2023-05-20T11:39:12.241Z,29.77
2023-05-20T11:41:13.877Z,29.50
2023-05-20T11:43:15.562Z,29.93
2023-05-20T11:45:17.221Z,30.06
2023-05-20T11:47:27.554Z,30.11
2023-05-20T11:49:29.331Z,30.53
2023-05-20T11:51:31.019Z,30.37
2023-05-20T11:53:32.655Z,30.27
2023-05-20T11:55:34.745Z,30.42
2023-05-20T11:57:38.247Z,30.78
2023-05-20T11:59:39.822Z,30.86
2023-05-20T12:01:41.376Z,31.50
2023-05-20T12:03:43.107Z,31.18
2023-05-20T12:05:45.148Z,31.03
2023-05-20T12:07:46.784Z,30.99
2023-05-20T12:09:48.362Z,30.76
2023-05-20T12:11:50.949Z,30.95
2023-05-20T12:13:52.756Z,30.90
2023-05-20T12:15:54.412Z,30.90
2023-05-20T12:17:56.343Z,30.96
2023-05-20T12:19:58.039Z,31.05
2023-05-20T12:21:59.639Z,30.95
2023-05-20T12:24:01.810Z,31.04
2023-05-20T12:26:03.529Z,30.94
2023-05-20T12:28:05.135Z,31.14
2023-05-20T12:30:08.618Z,31.21
2023-05-20T12:32:10.394Z,31.67
2023-05-20T12:34:12.028Z,30.99
2023-05-20T12:36:14.487Z,31.20
2023-05-20T12:38:16.305Z,31.42
2023-05-20T12:40:18.070Z,31.06
2023-05-20T12:42:19.933Z,30.77
2023-05-20T12:44:21.669Z,30.31
2023-05-20T12:46:23.338Z,30.31
2023-05-20T12:48:25.067Z,30.52
2023-05-20T12:50:27.209Z,29.89
2023-05-20T12:52:28.886Z,29.80
2023-05-20T12:54:30.732Z,29.84
2023-05-20T12:56:35.368Z,30.20
2023-05-20T12:58:36.988Z,29.40
2023-05-20T13:00:38.648Z,29.71
2023-05-20T13:02:42.548Z,29.60
2023-05-20T13:04:44.321Z,29.52
2023-05-20T13:06:46.133Z,29.82
2023-05-20T13:08:47.814Z,29.53
2023-05-20T13:10:49.491Z,29.61
2023-05-20T13:12:51.366Z,29.28
2023-05-20T13:14:53.037Z,29.15
2023-05-20T13:16:55.472Z,29.17
2023-05-20T13:18:57.128Z,29.00
2023-05-20T13:20:58.834Z,29.32
2023-05-20T13:23:00.582Z,29.08
2023-05-20T13:25:02.453Z,29.09
2023-05-20T13:27:04.670Z,29.13
2023-05-20T13:29:06.344Z,29.29
2023-05-20T13:31:08.543Z,28.87
2023-05-20T13:33:10.138Z,28.79
2023-05-20T13:35:13.015Z,29.11
2023-05-20T13:37:14.633Z,29.02
2023-05-20T13:39:16.580Z,29.11
2023-05-20T13:41:18.439Z,28.81
2023-05-20T13:43:20.176Z,29.07
2023-05-20T13:45:23.335Z,29.10
2023-05-20T13:47:25.090Z,29.10
2023-05-20T13:49:26.850Z,29.12
2023-05-20T13:51:28.635Z,28.80
2023-05-20T13:53:30.454Z,28.85
2023-05-20T13:55:33.244Z,29.17
2023-05-20T13:57:34.872Z,29.49
2023-05-20T13:59:36.503Z,29.01
2023-05-20T14:01:40.489Z,29.31
2023-05-20T14:03:43.241Z,29.23
2023-05-20T14:05:45.343Z,29.01
2023-05-20T14:07:47.019Z,28.80
2023-05-20T14:09:48.766Z,28.65
2023-05-20T14:11:51.358Z,28.80
2023-05-20T14:13:53.059Z,28.63
2023-05-20T14:15:54.941Z,28.76
2023-05-20T14:17:57.753Z,29.18
2023-05-20T14:20:00.584Z,29.12
2023-05-20T14:22:03.330Z,28.82
2023-05-20T14:24:05.208Z,29.04
2023-05-20T14:26:06.916Z,29.31
2023-05-20T14:28:08.559Z,29.43
2023-05-20T14:30:10.715Z,29.19
2023-05-20T14:32:13.484Z,29.66
2023-05-20T14:34:15.147Z,29.54
2023-05-20T14:36:17.056Z,29.90
2023-05-20T14:38:20.650Z,29.54
2023-05-20T14:40:22.375Z,29.16
2023-05-20T14:42:24.075Z,29.33
2023-05-20T14:44:25.720Z,29.70
2023-05-20T14:46:27.392Z,29.92
2023-05-20T14:48:29.125Z,29.62
2023-05-20T14:50:31.105Z,29.51
2023-05-20T14:52:32.950Z,29.29
2023-05-20T14:54:34.649Z,29.32
2023-05-20T14:56:36.409Z,29.54
2023-05-20T14:58:38.085Z,30.02
2023-05-20T15:00:39.934Z,29.49
2023-05-20T15:02:41.674Z,29.52
2023-05-20T15:04:46.411Z,29.46
2023-05-20T15:06:48.257Z,29.69
2023-05-20T15:08:49.831Z,29.75
2023-05-20T15:10:51.519Z,29.68
2023-05-20T15:12:53.508Z,29.43
2023-05-20T15:14:55.140Z,29.50
2023-05-20T15:16:56.908Z,29.27
2023-05-20T15:18:58.714Z,29.49
2023-05-20T15:21:03.226Z,29.88
2023-05-20T15:23:05.174Z,29.67
2023-05-20T15:25:07.172Z,29.98
2023-05-20T15:27:08.809Z,29.85
2023-05-20T15:29:10.706Z,30.40
2023-05-20T15:31:12.492Z,30.25
2023-05-20T15:33:14.887Z,30.69
2023-05-20T15:35:16.716Z,30.48
2023-05-20T15:37:18.359Z,30.48
2023-05-20T15:39:20.027Z,30.46
2023-05-20T15:41:21.745Z,30.67
2023-05-20T15:43:23.518Z,30.97
2023-05-20T15:45:25.238Z,30.98
2023-05-20T15:47:26.958Z,30.93
2023-05-20T15:49:28.815Z,31.06
2023-05-20T15:51:30.850Z,31.03
2023-05-20T15:53:32.967Z,31.17
2023-05-20T15:55:35.165Z,30.92
2023-05-20T15:57:36.859Z,31.10
2023-05-20T15:59:38.609Z,30.71
2023-05-20T16:01:40.439Z,30.83
2023-05-20T16:03:44.052Z,31.23
2023-05-20T16:05:45.885Z,30.86
2023-05-20T16:07:47.585Z,31.46
2023-05-20T16:09:49.203Z,31.45
2023-05-20T16:11:50.815Z,31.32
2023-05-20T16:13:52.502Z,31.46
2023-05-20T16:15:57.597Z,31.21
2023-05-20T16:17:59.486Z,31.21
2023-05-20T16:20:01.215Z,31.29
2023-05-20T16:22:02.959Z,31.34
2023-05-20T16:24:07.046Z,31.30
2023-05-20T16:26:08.711Z,31.41
2023-05-20T16:28:10.373Z,31.23
2023-05-20T16:30:12.514Z,31.45
2023-05-20T16:32:14.285Z,31.60
2023-05-20T16:34:16.877Z,31.24
2023-05-20T16:36:18.543Z,31.14
2023-05-20T16:38:20.126Z,31.40
2023-05-20T16:40:22.029Z,31.48
2023-05-20T16:42:24.217Z,30.79
2023-05-20T16:44:26.106Z,31.15
2023-05-20T16:46:27.899Z,31.10
2023-05-20T16:48:29.527Z,31.24
2023-05-20T16:50:32.702Z,31.22
2023-05-20T16:52:36.019Z,31.24
2023-05-20T16:54:38.139Z,31.08
2023-05-20T16:56:39.854Z,31.22
2023-05-20T16:58:41.770Z,31.01
2023-05-20T17:00:43.419Z,31.20
2023-05-20T17:02:45.163Z,31.23
2023-05-20T17:04:46.853Z,31.31
2023-05-20T17:06:50.142Z,31.26
2023-05-20T17:08:52.121Z,31.27
2023-05-20T17:10:54.404Z,31.38
2023-05-20T17:12:56.108Z,31.20
2023-05-20T17:14:57.740Z,31.61
2023-05-20T17:16:59.610Z,31.23
2023-05-20T17:19:01.462Z,31.32
2023-05-20T17:21:03.154Z,31.16
2023-05-20T17:23:04.787Z,31.23
2023-05-20T17:25:06.658Z,31.23
2023-05-20T17:27:08.424Z,31.32
2023-05-20T17:29:10.090Z,31.48
2023-05-20T17:31:11.925Z,31.42
2023-05-20T17:33:13.589Z,31.26
2023-05-20T17:35:15.306Z,31.45
2023-05-20T17:37:17.261Z,31.45
2023-05-20T17:39:18.964Z,31.39
2023-05-20T17:41:21.835Z,31.72
2023-05-20T17:43:25.154Z,31.68
2023-05-20T17:45:26.830Z,31.57
2023-05-20T17:47:28.604Z,31.66
2023-05-20T17:49:30.425Z,31.82
2023-05-20T17:51:32.673Z,31.35
2023-05-20T17:53:34.352Z,31.86
2023-05-20T17:55:36.603Z,31.84
2023-05-20T17:57:38.548Z,31.91
2023-05-20T17:59:41.949Z,31.90
2023-05-20T18:01:44.653Z,31.96
2023-05-20T18:03:46.562Z,31.98
2023-05-20T18:05:48.451Z,31.78
2023-05-20T18:07:50.111Z,32.02
2023-05-20T18:09:51.710Z,32.09
2023-05-20T18:11:53.601Z,32.10
2023-05-20T18:13:58.640Z,31.43
2023-05-20T18:16:00.548Z,31.35
2023-05-20T18:18:02.516Z,31.63
2023-05-20T18:20:05.790Z,31.63
2023-05-20T18:22:07.902Z,31.39
2023-05-20T18:24:09.520Z,31.61
2023-05-20T18:26:11.373Z,31.26
2023-05-20T18:28:13.332Z,31.06
2023-05-20T18:30:14.902Z,31.02
2023-05-20T18:32:16.464Z,31.33
2023-05-20T18:34:18.339Z,31.46
2023-05-20T18:36:19.967Z,31.53
2023-05-20T18:38:21.614Z,31.20
2023-05-20T18:40:23.408Z,31.29
2023-05-20T18:42:25.413Z,31.56
2023-05-20T18:44:27.024Z,31.37
2023-05-20T18:46:28.689Z,31.59
2023-05-20T18:48:30.360Z,31.27
2023-05-20T18:50:32.314Z,31.34
2023-05-20T18:52:33.923Z,31.65
2023-05-20T18:54:35.769Z,31.26
2023-05-20T18:56:37.758Z,31.69
2023-05-20T18:58:39.426Z,31.54
2023-05-20T19:00:41.480Z,31.68
2023-05-20T19:02:43.169Z,32.24
2023-05-20T19:04:44.886Z,31.89
2023-05-20T19:06:46.570Z,31.53
2023-05-20T19:08:49.336Z,31.59
2023-05-20T19:10:51.101Z,31.74
2023-05-20T19:12:52.795Z,31.33
2023-05-20T19:14:54.428Z,31.71
2023-05-20T19:16:56.558Z,31.67
2023-05-20T19:18:58.325Z,31.65
2023-05-20T19:21:00.018Z,31.39
2023-05-20T19:23:01.776Z,31.80
2023-05-20T19:25:05.303Z,31.69
2023-05-20T19:27:07.241Z,31.42
2023-05-20T19:29:08.894Z,31.83
2023-05-20T19:31:11.148Z,31.51
2023-05-20T19:33:12.831Z,31.24
2023-05-20T19:35:14.565Z,31.64
2023-05-20T19:37:16.199Z,31.87
2023-05-20T19:39:17.896Z,31.65
2023-05-20T19:41:19.622Z,31.23
2023-05-20T19:43:24.313Z,31.69
2023-05-20T19:45:26.037Z,31.83
2023-05-20T19:47:27.667Z,31.62
2023-05-20T19:49:29.619Z,31.44
2023-05-20T19:51:31.411Z,31.50
2023-05-20T19:53:33.109Z,31.56
2023-05-20T19:55:36.074Z,31.55
2023-05-20T19:57:38.133Z,31.71
2023-05-20T19:59:39.988Z,31.81
2023-05-20T20:01:41.725Z,31.90
2023-05-20T20:03:44.100Z,31.39
2023-05-20T20:05:46.006Z,31.56
2023-05-20T20:07:48.133Z,31.56
2023-05-20T20:09:51.598Z,31.53
2023-05-20T20:11:53.705Z,31.34
2023-05-20T20:13:55.419Z,31.74
2023-05-20T20:15:57.127Z,31.73
2023-05-20T20:17:59.296Z,31.55
2023-05-20T20:20:01.244Z,31.30
2023-05-20T20:22:03.130Z,31.60
2023-05-20T20:24:05.087Z,31.44
2023-05-20T20:26:07.784Z,31.76
2023-05-20T20:28:10.536Z,31.76
2023-05-20T20:30:13.695Z,31.51
2023-05-20T20:32:15.605Z,31.41
2023-05-20T20:34:17.525Z,31.83
2023-05-20T20:36:19.605Z,31.60
2023-05-20T20:38:21.210Z,31.68
2023-05-20T20:40:23.463Z,31.81
2023-05-20T20:42:25.123Z,31.69
2023-05-20T20:44:26.772Z,31.67
2023-05-20T20:46:28.704Z,31.92
2023-05-20T20:48:30.338Z,31.63
2023-05-20T20:50:32.037Z,31.62
2023-05-20T20:52:34.687Z,31.69
2023-05-20T20:54:36.485Z,31.85
2023-05-20T20:56:39.505Z,31.52
2023-05-20T20:58:41.281Z,31.55
2023-05-20T21:00:45.083Z,31.70
2023-05-20T21:02:47.876Z,31.96
2023-05-20T21:04:49.608Z,31.55
2023-05-20T21:06:52.194Z,31.57
2023-05-20T21:08:58.191Z,31.50
2023-05-20T21:10:59.816Z,31.71
2023-05-20T21:13:01.697Z,31.50
2023-05-20T21:15:03.557Z,31.58
2023-05-20T21:17:05.504Z,31.45
2023-05-20T21:19:07.264Z,31.86
2023-05-20T21:21:12.181Z,31.66
2023-05-20T21:23:13.932Z,31.40
2023-05-20T21:25:15.689Z,31.77
2023-05-20T21:27:17.534Z,31.67
2023-05-20T21:29:19.224Z,31.85
2023-05-20T21:31:21.032Z,31.62
2023-05-20T21:33:22.663Z,31.86
2023-05-20T21:35:24.257Z,31.59
2023-05-20T21:37:25.970Z,31.42
2023-05-20T21:39:27.548Z,31.52
2023-05-20T21:41:29.318Z,31.48
2023-05-20T21:43:31.008Z,31.48
2023-05-20T21:45:32.703Z,31.74
2023-05-20T21:47:34.335Z,32.28
2023-05-20T21:49:35.944Z,32.04
2023-05-20T21:51:37.572Z,31.69
2023-05-20T21:53:39.249Z,31.86
2023-05-20T21:55:41.077Z,31.57
2023-05-20T21:57:42.827Z,32.00
2023-05-20T21:59:44.634Z,31.93
2023-05-20T22:01:46.396Z,31.85
2023-05-20T22:03:51.345Z,31.74
2023-05-20T22:05:53.356Z,31.85
2023-05-20T22:07:55.124Z,31.98
2023-05-20T22:09:57.023Z,31.85
2023-05-20T22:11:59.801Z,32.15
2023-05-20T22:14:01.792Z,32.25
2023-05-20T22:16:04.935Z,31.99
2023-05-20T22:18:07.826Z,31.96
2023-05-20T22:20:11.369Z,31.97
2023-05-20T22:22:13.144Z,32.21
2023-05-20T22:24:14.859Z,31.88
2023-05-20T22:26:18.802Z,32.09
2023-05-20T22:28:21.360Z,31.97
2023-05-20T22:30:23.236Z,31.93
2023-05-20T22:32:24.857Z,31.92
2023-05-20T22:34:26.568Z,31.91
2023-05-20T22:36:28.275Z,31.98
2023-05-20T22:38:30.789Z,31.51
2023-05-20T22:40:33.529Z,31.89
2023-05-20T22:42:35.578Z,31.94
2023-05-20T22:44:37.198Z,32.19
2023-05-20T22:46:39.092Z,32.06
2023-05-20T22:48:41.234Z,31.98
2023-05-20T22:50:43.955Z,31.89
2023-05-20T22:52:46.330Z,32.12
2023-05-20T22:54:48.013Z,31.89
2023-05-20T22:56:56.689Z,32.18
2023-05-20T22:58:58.409Z,32.08
2023-05-20T23:01:00.191Z,32.26
2023-05-20T23:03:01.903Z,32.21
2023-05-20T23:05:04.224Z,32.32
2023-05-20T23:07:06.407Z,32.66
2023-05-20T23:09:08.639Z,32.28
2023-05-20T23:11:10.701Z,32.15
2023-05-20T23:13:12.490Z,32.23
2023-05-20T23:15:14.111Z,32.17
2023-05-20T23:17:15.980Z,32.09
2023-05-20T23:19:17.679Z,32.12
2023-05-20T23:21:19.416Z,32.08
2023-05-20T23:23:30.548Z,32.14
2023-05-20T23:25:34.097Z,32.00
2023-05-20T23:27:35.993Z,32.13
2023-05-20T23:29:37.831Z,32.19
2023-05-20T23:31:39.847Z,31.96
2023-05-20T23:33:41.613Z,32.15
2023-05-20T23:35:44.178Z,32.01
2023-05-20T23:37:48.888Z,32.55
2023-05-20T23:39:50.925Z,32.06
2023-05-20T23:41:52.529Z,31.92
2023-05-20T23:43:54.368Z,32.06
2023-05-20T23:45:56.019Z,32.13
2023-05-20T23:47:57.766Z,32.23
2023-05-20T23:49:59.927Z,32.34
2023-05-20T23:52:01.651Z,32.34
2023-05-20T23:54:03.297Z,32.18
2023-05-20T23:56:07.611Z,32.13
2023-05-20T23:58:09.224Z,32.34
